Time;durP1;ratioP1;P1;durP2;ratioP2;P2;SDS_P1;SDS_P2;PMS_P1;PMS_P2;Temp;Humidity;BMP_temperature;BMP_pressure;BME280_temperature;BME280_humidity;BME280_pressure;Samples;Min_cycle;Max_cycle;Signal;HPM_P1;HPM_P2
2022/05/24 00:00:11;;;;;;;0.00;0.00;;;17.90;99.90;226.50;231333.00;;;;5071942;28;20213;-69
2022/05/24 00:02:40;;;;;;;0.00;0.00;;;17.90;99.90;226.50;231333.00;;;;5071961;28;20706;-69
2022/05/24 00:05:12;;;;;;;0.00;0.00;;;18.00;99.90;226.50;231333.00;;;;5072057;28;20221;-69
2022/05/24 00:07:41;;;;;;;0.00;0.00;;;18.00;99.90;226.50;231333.00;;;;5070542;28;20228;-69
2022/05/24 00:10:16;;;;;;;0.00;0.00;;;18.00;99.90;226.50;231333.00;;;;5072030;28;20214;-69
2022/05/24 00:12:44;;;;;;;0.00;0.00;;;18.00;99.90;226.50;231333.00;;;;5071991;28;20682;-69
2022/05/24 00:15:23;;;;;;;0.10;0.10;;;18.00;99.90;226.50;231333.00;;;;5072059;28;20244;-69
2022/05/24 00:17:58;;;;;;;0.00;0.00;;;18.00;99.90;226.50;231333.00;;;;5071861;28;20899;-69
2022/05/24 00:20:30;;;;;;;0.00;0.00;;;18.00;99.90;226.50;231333.00;;;;5071310;28;20228;-68
2022/05/24 00:22:58;;;;;;;0.00;0.00;;;17.90;99.90;226.50;231333.00;;;;5071791;28;20232;-68
2022/05/24 00:25:28;;;;;;;0.00;0.00;;;17.90;99.90;226.50;231333.00;;;;5071710;28;20220;-69
2022/05/24 00:27:57;;;;;;;0.00;0.00;;;17.90;99.90;226.50;231333.00;;;;5071455;28;20243;-69
2022/05/24 00:30:27;;;;;;;0.00;0.00;;;17.80;99.90;226.50;231333.00;;;;5070623;28;20217;-69
2022/05/24 00:32:55;;;;;;;0.00;0.00;;;17.80;99.90;226.50;231333.00;;;;5071856;28;20209;-69
2022/05/24 00:35:24;;;;;;;0.00;0.00;;;17.80;99.90;226.50;231333.00;;;;5071530;28;20601;-68
2022/05/24 00:37:53;;;;;;;0.00;0.00;;;17.80;99.90;226.50;231333.00;;;;5071105;28;20197;-68
2022/05/24 00:40:39;;;;;;;0.00;0.00;;;17.80;99.90;226.50;231333.00;;;;5071192;28;20748;-69
2022/05/24 00:43:24;;;;;;;0.00;0.00;;;17.80;99.90;226.50;231333.00;;;;5071587;28;20229;-68
2022/05/24 00:46:03;;;;;;;0.00;0.00;;;17.90;99.90;226.50;231333.00;;;;5051178;28;20569;-68
2022/05/24 00:48:37;;;;;;;0.00;0.00;;;17.90;99.90;226.50;231333.00;;;;5059349;28;20203;-68
2022/05/24 00:51:10;;;;;;;0.00;0.00;;;17.80;99.90;226.50;231333.00;;;;5067687;28;20263;-68
2022/05/24 00:53:46;;;;;;;0.00;0.00;;;17.80;99.90;226.50;231333.00;;;;5071142;28;20193;-69
2022/05/24 00:56:24;;;;;;;0.00;0.00;;;17.80;99.90;226.50;231333.00;;;;5070985;28;20483;-70
2022/05/24 00:59:00;;;;;;;0.00;0.00;;;17.80;99.90;226.50;231333.00;;;;5071225;28;20193;-70
2022/05/24 01:01:36;;;;;;;0.10;0.10;;;17.70;99.90;226.50;231333.00;;;;5069333;28;20196;-70
2022/05/24 01:04:06;;;;;;;0.00;0.00;;;17.70;99.90;226.50;231333.00;;;;5070859;28;20216;-69
2022/05/24 01:06:36;;;;;;;0.00;0.00;;;17.60;1.00;226.50;231333.00;;;;5070712;28;20235;-70
2022/05/24 01:09:10;;;;;;;0.00;0.00;;;17.50;1.00;226.50;231333.00;;;;5067490;28;20227;-70
2022/05/24 01:11:44;;;;;;;0.00;0.00;;;17.60;1.00;226.50;231333.00;;;;5058373;28;20611;-70
2022/05/24 01:14:17;;;;;;;0.00;0.00;;;17.50;1.00;226.50;231333.00;;;;5061587;28;20271;-69
2022/05/24 01:16:48;;;;;;;0.00;0.00;;;17.50;1.00;226.50;231333.00;;;;5050745;28;20210;-70
2022/05/24 01:19:33;;;;;;;0.00;0.00;;;17.50;1.00;226.50;231333.00;;;;5070907;28;20703;-69
2022/05/24 01:22:26;;;;;;;0.00;0.00;;;17.40;1.00;226.50;231333.00;;;;5074851;28;20193;-70
2022/05/24 01:25:05;;;;;;;0.00;0.00;;;17.40;1.00;226.50;231333.00;;;;5069371;28;20282;-70
2022/05/24 01:27:38;;;;;;;0.00;0.00;;;17.40;1.00;226.50;231333.00;;;;5073645;28;20605;-69
2022/05/24 01:30:10;;;;;;;0.00;0.00;;;17.40;1.00;226.50;231333.00;;;;5075244;28;20221;-71
2022/05/24 01:38:18;;;;;;;0.00;0.00;;;17.30;1.00;226.50;231333.00;;;;5071950;28;20209;-70
2022/05/24 01:40:49;;;;;;;0.00;0.00;;;17.40;1.00;226.50;231333.00;;;;5068093;28;20225;-71
2022/05/24 01:43:22;;;;;;;0.00;0.00;;;17.40;1.00;226.50;231333.00;;;;5074713;28;20201;-70
2022/05/24 01:45:56;;;;;;;0.00;0.00;;;17.30;1.00;226.50;231333.00;;;;5073800;28;20197;-70
2022/05/24 01:48:34;;;;;;;0.00;0.00;;;17.30;1.00;226.50;231333.00;;;;5074517;28;20207;-69
2022/05/24 01:51:06;;;;;;;0.00;0.00;;;17.30;1.00;226.50;231333.00;;;;5073635;28;20225;-70
2022/05/24 01:53:42;;;;;;;0.00;0.00;;;17.30;1.00;226.50;231333.00;;;;5074286;28;20198;-70
2022/05/24 01:56:41;;;;;;;0.00;0.00;;;17.30;1.00;226.50;231333.00;;;;5059998;28;20233;-69
2022/05/24 01:59:13;;;;;;;0.00;0.00;;;17.30;1.00;226.50;231333.00;;;;5056654;28;20190;-69
2022/05/24 02:01:48;;;;;;;0.00;0.00;;;17.30;1.00;226.50;231333.00;;;;5057559;28;20230;-69
2022/05/24 02:04:19;;;;;;;0.00;0.00;;;17.30;1.00;226.50;231333.00;;;;5066934;28;20197;-69
2022/05/24 02:07:01;;;;;;;0.00;0.00;;;17.30;1.00;226.50;231333.00;;;;5077204;28;20223;-69
2022/05/24 02:09:31;;;;;;;0.00;0.00;;;17.20;1.00;226.50;231333.00;;;;5069795;28;20664;-68
2022/05/24 02:12:06;;;;;;;0.00;0.00;;;17.20;1.00;226.50;231333.00;;;;5084434;28;20190;-68
2022/05/24 02:14:40;;;;;;;0.00;0.00;;;17.20;1.00;226.50;231333.00;;;;5064214;28;20260;-68
2022/05/24 02:17:16;;;;;;;0.00;0.00;;;17.20;1.00;226.50;231333.00;;;;5061088;28;20198;-69
2022/05/24 02:19:51;;;;;;;0.00;0.00;;;17.20;1.00;226.50;231333.00;;;;5066120;28;20270;-68
2022/05/24 02:22:24;;;;;;;0.00;0.00;;;17.30;1.00;226.50;231333.00;;;;5081324;28;20193;-68
2022/05/24 02:25:01;;;;;;;0.00;0.00;;;17.30;1.00;226.50;231333.00;;;;5081362;28;20252;-68
2022/05/24 02:27:30;;;;;;;0.00;0.00;;;17.30;1.00;226.50;231333.00;;;;5081294;28;20193;-69
2022/05/24 02:30:00;;;;;;;0.00;0.00;;;17.30;1.00;226.50;231333.00;;;;5080229;28;20656;-68
2022/05/24 02:32:29;;;;;;;0.00;0.00;;;17.30;1.00;226.50;231333.00;;;;5083081;28;20205;-69
2022/05/24 02:34:57;;;;;;;0.00;0.00;;;17.30;1.00;226.50;231333.00;;;;5074532;28;20251;-69
2022/05/24 02:37:25;;;;;;;0.00;0.00;;;17.30;1.00;226.50;231333.00;;;;5073661;28;20193;-69
2022/05/24 02:42:40;;;;;;;0.00;0.00;;;17.30;1.00;226.50;231333.00;;;;5073966;28;20259;-69
2022/05/24 02:45:10;;;;;;;0.00;0.00;;;17.30;1.00;226.50;231333.00;;;;5073826;28;20311;-69
2022/05/24 02:47:40;;;;;;;0.00;0.00;;;17.20;1.00;226.50;231333.00;;;;5052931;28;20688;-69
2022/05/24 02:50:11;;;;;;;0.00;0.00;;;17.30;1.00;226.50;231333.00;;;;5063780;28;20723;-69
2022/05/24 02:52:39;;;;;;;0.00;0.00;;;17.30;1.00;226.50;231333.00;;;;5068063;28;20194;-69
2022/05/24 02:55:10;;;;;;;0.00;0.00;;;17.30;1.00;226.50;231333.00;;;;5070679;28;20198;-68
2022/05/24 02:57:42;;;;;;;0.00;0.00;;;17.30;1.00;226.50;231333.00;;;;5072739;28;20212;-69
2022/05/24 03:00:18;;;;;;;0.00;0.00;;;17.20;1.00;226.50;231333.00;;;;5073438;28;20691;-68
2022/05/24 03:02:47;;;;;;;0.00;0.00;;;17.20;1.00;226.50;231333.00;;;;5054640;28;20202;-69
2022/05/24 03:05:23;;;;;;;0.00;0.00;;;17.10;1.00;226.50;231333.00;;;;5058980;28;20228;-69
2022/05/24 03:10:39;;;;;;;0.00;0.00;;;17.10;1.00;226.50;231333.00;;;;5067020;28;20626;-69
2022/05/24 03:15:57;;;;;;;0.00;0.00;;;17.00;1.00;226.50;231333.00;;;;5060553;28;20539;-68
2022/05/24 03:18:26;;;;;;;0.05;0.05;;;17.00;1.00;226.50;231333.00;;;;5068519;28;20202;-68
2022/05/24 03:20:54;;;;;;;0.00;0.00;;;17.00;1.00;226.50;231333.00;;;;5068793;28;20589;-68
2022/05/24 03:23:23;;;;;;;0.00;0.00;;;17.00;1.00;226.50;231333.00;;;;5073127;28;20198;-69
2022/05/24 03:25:51;;;;;;;0.00;0.00;;;17.00;1.00;226.50;231333.00;;;;5072225;28;20792;-68
2022/05/24 03:28:20;;;;;;;0.00;0.00;;;16.90;1.00;226.50;231333.00;;;;5072217;28;20200;-70
2022/05/24 03:30:49;;;;;;;0.00;0.00;;;16.90;1.00;226.50;231333.00;;;;5072186;28;20224;-69
2022/05/24 03:33:19;;;;;;;0.00;0.00;;;16.90;1.00;226.50;231333.00;;;;5073051;28;20186;-69
2022/05/24 03:35:48;;;;;;;0.00;0.00;;;16.90;1.00;226.50;231333.00;;;;5072184;28;20197;-70
2022/05/24 03:38:17;;;;;;;0.00;0.00;;;16.90;1.00;226.50;231333.00;;;;5071862;28;20251;-69
2022/05/24 03:40:45;;;;;;;0.00;0.00;;;16.90;1.00;226.50;231333.00;;;;5071440;28;20698;-69
2022/05/24 03:43:16;;;;;;;0.00;0.00;;;16.90;1.00;226.50;231333.00;;;;5072781;28;20185;-69
2022/05/24 03:45:46;;;;;;;0.00;0.00;;;17.00;1.00;226.50;231333.00;;;;5071789;28;20292;-69
2022/05/24 03:48:19;;;;;;;0.00;0.00;;;17.00;1.00;226.50;231333.00;;;;5071925;28;20223;-69
2022/05/24 03:50:47;;;;;;;0.00;0.00;;;17.10;1.00;226.50;231333.00;;;;5071665;28;20759;-70
2022/05/24 03:53:16;;;;;;;0.00;0.00;;;17.10;1.00;226.50;231333.00;;;;5071211;28;20194;-69
2022/05/24 03:55:44;;;;;;;0.00;0.00;;;17.10;1.00;226.50;231333.00;;;;5070919;28;20249;-70
2022/05/24 03:58:13;;;;;;;0.00;0.00;;;17.10;1.00;226.50;231333.00;;;;5072151;28;20200;-70
2022/05/24 04:00:44;;;;;;;0.00;0.00;;;17.10;1.00;226.50;231333.00;;;;5071865;28;20271;-69
2022/05/24 04:03:13;;;;;;;0.00;0.00;;;17.10;1.00;226.50;231333.00;;;;5071883;28;20193;-69
2022/05/24 04:05:51;;;;;;;0.00;0.00;;;17.10;1.00;226.50;231333.00;;;;5071433;28;20205;-69
2022/05/24 04:08:24;;;;;;;0.00;0.00;;;17.10;1.00;226.50;231333.00;;;;5071822;28;20198;-69
2022/05/24 04:11:01;;;;;;;0.00;0.00;;;17.10;1.00;226.50;231333.00;;;;5065520;28;20755;-69
2022/05/24 04:13:30;;;;;;;0.10;0.10;;;17.00;1.00;226.50;231333.00;;;;5051911;28;20190;-69
2022/05/24 04:15:59;;;;;;;0.00;0.00;;;17.00;1.00;226.50;231333.00;;;;5065212;28;20186;-69
2022/05/24 04:18:28;;;;;;;0.10;0.10;;;17.10;1.00;226.50;231333.00;;;;5067303;28;20744;-69
2022/05/24 04:20:58;;;;;;;0.00;0.00;;;17.10;1.00;226.50;231333.00;;;;5053426;28;20699;-69
2022/05/24 04:23:27;;;;;;;0.00;0.00;;;17.10;1.00;226.50;231333.00;;;;5059247;28;20194;-69
2022/05/24 04:25:57;;;;;;;0.00;0.00;;;17.10;1.00;226.50;231333.00;;;;5070864;28;20604;-69
2022/05/24 04:28:25;;;;;;;0.00;0.00;;;17.10;1.00;226.50;231333.00;;;;5071620;28;20189;-69
2022/05/24 04:30:58;;;;;;;0.00;0.00;;;17.10;1.00;226.50;231333.00;;;;5071858;28;20205;-69
2022/05/24 04:33:27;;;;;;;0.00;0.00;;;17.10;99.90;226.50;231333.00;;;;5071697;28;20239;-69
2022/05/24 04:35:58;;;;;;;0.00;0.00;;;17.10;99.90;226.50;231333.00;;;;5070984;28;20505;-69
2022/05/24 04:38:27;;;;;;;0.00;0.00;;;17.10;99.90;226.50;231333.00;;;;5068060;28;20658;-69
2022/05/24 04:43:41;;;;;;;0.00;0.00;;;17.10;99.90;226.50;231333.00;;;;5073524;28;20208;-69
2022/05/24 04:46:11;;;;;;;0.00;0.00;;;17.10;99.90;226.50;231333.00;;;;5071207;28;20254;-69
2022/05/24 04:48:41;;;;;;;0.00;0.00;;;17.10;99.90;226.50;231333.00;;;;5069711;28;20181;-69
2022/05/24 04:51:11;;;;;;;0.00;0.00;;;17.10;99.90;226.50;231333.00;;;;5070224;28;20216;-69
2022/05/24 04:53:40;;;;;;;0.00;0.00;;;17.10;99.90;226.50;231333.00;;;;5059382;28;20255;-68
2022/05/24 04:56:08;;;;;;;0.00;0.00;;;17.10;99.90;226.50;231333.00;;;;5067676;28;20596;-69
2022/05/24 04:58:36;;;;;;;0.00;0.00;;;17.10;99.90;226.50;231333.00;;;;5070662;28;20197;-68
2022/05/24 05:01:05;;;;;;;0.00;0.00;;;17.20;99.90;226.50;231333.00;;;;5071290;28;20221;-69
2022/05/24 05:03:35;;;;;;;0.00;0.00;;;17.20;99.90;226.50;231333.00;;;;5074126;28;20266;-69
2022/05/24 05:06:10;;;;;;;0.00;0.00;;;17.30;99.90;226.50;231333.00;;;;5071936;28;20190;-68
2022/05/24 05:08:39;;;;;;;0.00;0.00;;;17.30;99.90;226.50;231333.00;;;;5073416;28;20243;-69
2022/05/24 05:11:08;;;;;;;0.00;0.00;;;17.40;99.90;226.50;231333.00;;;;5059662;28;20218;-70
2022/05/24 05:13:36;;;;;;;0.00;0.00;;;17.50;99.90;226.50;231333.00;;;;5066612;28;20587;-69
2022/05/24 05:16:06;;;;;;;0.00;0.00;;;17.50;99.90;226.50;231333.00;;;;5058775;28;20216;-69
2022/05/24 05:18:34;;;;;;;0.00;0.00;;;17.60;99.90;226.50;231333.00;;;;5073225;28;20197;-69
2022/05/24 05:21:03;;;;;;;0.00;0.00;;;17.60;99.90;226.50;231333.00;;;;5074183;28;20210;-70
2022/05/24 05:23:32;;;;;;;0.00;0.00;;;17.70;99.90;226.50;231333.00;;;;5074632;28;20220;-69
2022/05/24 05:26:01;;;;;;;0.00;0.00;;;17.70;92.40;226.50;231333.00;;;;5073924;28;20204;-68
2022/05/24 05:28:30;;;;;;;0.00;0.00;;;17.80;91.30;226.50;231333.00;;;;5074033;28;20193;-69
2022/05/24 05:33:47;;;;;;;0.00;0.00;;;18.00;1.00;226.50;231333.00;;;;5073062;28;20198;-69
2022/05/24 05:36:16;;;;;;;0.00;0.00;;;18.10;1.00;226.50;231333.00;;;;5073666;28;20209;-69
2022/05/24 05:38:46;;;;;;;0.00;0.00;;;18.20;1.00;226.50;231333.00;;;;5072890;28;20205;-68
2022/05/24 05:41:19;;;;;;;0.00;0.00;;;18.20;1.00;226.50;231333.00;;;;5074714;28;20263;-69
2022/05/24 05:43:48;;;;;;;0.00;0.00;;;18.20;1.00;226.50;231333.00;;;;5072258;28;20625;-69
2022/05/24 05:46:18;;;;;;;0.00;0.00;;;18.20;1.00;226.50;231333.00;;;;5070304;28;20251;-70
2022/05/24 05:48:47;;;;;;;0.00;0.00;;;18.10;1.00;226.50;231333.00;;;;5070657;28;20822;-68
2022/05/24 05:51:19;;;;;;;0.00;0.00;;;18.10;1.00;226.50;231333.00;;;;5071809;28;20714;-69
2022/05/24 05:53:50;;;;;;;0.00;0.00;;;18.10;1.00;226.50;231333.00;;;;5071757;28;20561;-69
2022/05/24 05:56:23;;;;;;;0.00;0.00;;;18.10;1.00;226.50;231333.00;;;;5070563;28;20193;-69
2022/05/24 05:58:51;;;;;;;0.00;0.00;;;18.00;1.00;226.50;231333.00;;;;5070668;28;20201;-71
2022/05/24 06:01:28;;;;;;;0.00;0.00;;;18.00;1.00;226.50;231333.00;;;;5070509;28;20198;-70
2022/05/24 06:04:00;;;;;;;0.00;0.00;;;18.00;1.00;226.50;231333.00;;;;5065968;28;20710;-69
2022/05/24 06:06:34;;;;;;;0.00;0.00;;;17.90;1.00;226.50;231333.00;;;;5073955;28;20582;-69
2022/05/24 06:09:03;;;;;;;0.00;0.00;;;17.90;1.00;226.50;231333.00;;;;5067021;28;20190;-69
2022/05/24 06:11:33;;;;;;;0.00;0.00;;;17.90;1.00;226.50;231333.00;;;;5054308;28;20221;-69
2022/05/24 06:14:01;;;;;;;0.00;0.00;;;17.80;1.00;226.50;231333.00;;;;5062314;28;20730;-69
2022/05/24 06:16:34;;;;;;;0.00;0.00;;;17.70;1.00;226.50;231333.00;;;;5069510;28;20195;-69
2022/05/24 06:19:03;;;;;;;0.00;0.00;;;17.80;1.00;226.50;231333.00;;;;5054067;28;20199;-69
2022/05/24 06:21:34;;;;;;;0.00;0.00;;;17.80;1.00;226.50;231333.00;;;;5063780;28;20205;-68
2022/05/24 06:24:03;;;;;;;0.00;0.00;;;17.80;1.00;226.50;231333.00;;;;5059930;28;20305;-69
2022/05/24 06:26:34;;;;;;;0.00;0.00;;;17.90;1.00;226.50;231333.00;;;;5053592;28;20198;-69
2022/05/24 06:29:04;;;;;;;0.00;0.00;;;17.90;1.00;226.50;231333.00;;;;5054028;28;20205;-69
2022/05/24 06:31:33;;;;;;;0.00;0.00;;;17.90;1.00;226.50;231333.00;;;;5059145;28;20192;-69
2022/05/24 06:34:02;;;;;;;0.00;0.00;;;17.90;1.00;226.50;231333.00;;;;5074494;28;20232;-69
2022/05/24 06:36:30;;;;;;;0.00;0.00;;;17.90;1.00;226.50;231333.00;;;;5072111;28;20243;-69
2022/05/24 06:38:59;;;;;;;0.00;0.00;;;18.00;1.00;226.50;231333.00;;;;5073451;28;20245;-69
2022/05/24 06:41:27;;;;;;;0.00;0.00;;;17.90;1.00;226.50;231333.00;;;;5073789;28;20284;-69
2022/05/24 06:43:57;;;;;;;0.00;0.00;;;18.00;1.00;226.50;231333.00;;;;5073210;28;20213;-69
2022/05/24 06:46:26;;;;;;;0.00;0.00;;;18.00;1.00;226.50;231333.00;;;;5053120;28;20244;-69
2022/05/24 06:48:54;;;;;;;0.00;0.00;;;18.00;1.00;226.50;231333.00;;;;5054271;28;20519;-69
2022/05/24 06:51:24;;;;;;;0.00;0.00;;;18.10;1.00;226.50;231333.00;;;;5053864;28;20194;-69
2022/05/24 06:53:53;;;;;;;0.00;0.00;;;18.20;1.00;226.50;231333.00;;;;5057243;28;20201;-69
2022/05/24 06:56:22;;;;;;;0.00;0.00;;;18.20;1.00;226.50;231333.00;;;;5069740;28;20190;-69
2022/05/24 07:02:24;;;;;;;0.00;0.00;;;18.30;1.00;226.50;231333.00;;;;5051987;28;20186;-69
2022/05/24 07:04:38;;;;;;;0.00;0.00;;;18.20;1.00;226.50;231333.00;;;;5009333;28;20242;-69
2022/05/24 07:07:07;;;;;;;0.00;0.00;;;18.20;1.00;226.50;231333.00;;;;5067492;28;20556;-69
2022/05/24 07:09:35;;;;;;;0.00;0.00;;;18.20;1.00;226.50;231333.00;;;;5065275;28;20714;-70
2022/05/24 07:12:05;;;;;;;0.00;0.00;;;18.20;1.00;226.50;231333.00;;;;5073458;28;20197;-69
2022/05/24 07:14:35;;;;;;;0.00;0.00;;;18.30;1.00;226.50;231333.00;;;;5054438;28;20280;-68
2022/05/24 07:17:05;;;;;;;0.00;0.00;;;18.20;1.00;226.50;231333.00;;;;5052955;28;20546;-70
2022/05/24 07:19:34;;;;;;;0.00;0.00;;;18.30;1.00;226.50;231333.00;;;;5054510;28;20210;-69
2022/05/24 07:22:02;;;;;;;0.00;0.00;;;18.20;1.00;226.50;231333.00;;;;5073488;28;20219;-69
2022/05/24 07:24:30;;;;;;;0.00;0.00;;;18.20;1.00;226.50;231333.00;;;;5071341;28;20576;-69
2022/05/24 07:26:59;;;;;;;0.00;0.00;;;18.20;1.00;226.50;231333.00;;;;5071233;28;20267;-69
2022/05/24 07:29:28;;;;;;;0.00;0.00;;;18.20;1.00;226.50;231333.00;;;;5055798;28;20226;-69
2022/05/24 07:31:56;;;;;;;0.00;0.00;;;18.20;99.90;226.50;231333.00;;;;5070071;28;20201;-69
2022/05/24 07:34:26;;;;;;;0.00;0.00;;;18.20;99.90;226.50;231333.00;;;;5072525;28;20208;-69
2022/05/24 07:36:55;;;;;;;0.00;0.00;;;18.30;99.90;226.50;231333.00;;;;5071412;28;20186;-69
2022/05/24 07:39:24;;;;;;;0.00;0.00;;;18.30;99.90;226.50;231333.00;;;;5073017;28;20214;-69
2022/05/24 07:47:40;;;;;;;0.00;0.00;;;18.40;1.00;226.50;231333.00;;;;5067447;28;20612;-68
2022/05/24 07:50:11;;;;;;;0.00;0.00;;;18.30;1.00;226.50;231333.00;;;;5072395;28;20217;-68
2022/05/24 07:52:40;;;;;;;0.00;0.00;;;18.40;1.00;226.50;231333.00;;;;5073239;28;20256;-68
2022/05/24 07:55:09;;;;;;;0.00;0.00;;;18.30;1.00;226.50;231333.00;;;;5072966;28;20210;-69
2022/05/24 07:57:39;;;;;;;0.00;0.00;;;18.40;1.00;226.50;231333.00;;;;5072470;28;20194;-68
2022/05/24 08:00:09;;;;;;;0.00;0.00;;;18.30;1.00;226.50;231333.00;;;;5073057;28;20217;-68
2022/05/24 08:02:41;;;;;;;0.00;0.00;;;18.40;1.00;226.50;231333.00;;;;5071803;28;20222;-68
2022/05/24 08:05:11;;;;;;;0.00;0.00;;;18.30;1.00;226.50;231333.00;;;;5072015;28;20612;-67
2022/05/24 08:07:40;;;;;;;0.00;0.00;;;18.30;1.00;226.50;231333.00;;;;5071371;28;20193;-68
2022/05/24 08:10:09;;;;;;;0.00;0.00;;;18.30;1.00;226.50;231333.00;;;;5072274;28;20214;-69
2022/05/24 08:12:45;;;;;;;0.00;0.00;;;18.50;1.00;226.50;231333.00;;;;5072369;28;20201;-68
2022/05/24 08:15:15;;;;;;;0.00;0.00;;;18.70;1.00;226.50;231333.00;;;;5072569;28;20717;-68
2022/05/24 08:17:43;;;;;;;0.00;0.00;;;18.70;99.90;226.50;231333.00;;;;5071652;28;20201;-68
2022/05/24 08:20:14;;;;;;;0.00;0.00;;;19.00;99.90;226.50;231333.00;;;;5072684;28;20209;-68
2022/05/24 08:22:43;;;;;;;0.00;0.00;;;19.10;1.00;226.50;231333.00;;;;5071902;28;20541;-69
2022/05/24 08:25:13;;;;;;;0.00;0.00;;;19.40;1.00;226.50;231333.00;;;;5072270;28;20221;-70
2022/05/24 08:27:42;;;;;;;0.00;0.00;;;19.40;99.90;226.50;231333.00;;;;5070429;28;20193;-69
2022/05/24 08:30:14;;;;;;;0.10;0.10;;;19.30;99.90;226.50;231333.00;;;;5072081;28;20213;-69
2022/05/24 08:32:44;;;;;;;0.00;0.00;;;19.30;1.00;226.50;231333.00;;;;5071508;28;20181;-69
2022/05/24 08:35:16;;;;;;;0.00;0.00;;;19.20;61.20;226.50;231333.00;;;;5071319;28;20193;-69
2022/05/24 08:37:46;;;;;;;0.00;0.00;;;19.20;14.30;226.50;231333.00;;;;5055164;28;20676;-69
2022/05/24 08:40:19;;;;;;;0.00;0.00;;;19.10;1.00;226.50;231333.00;;;;5059021;28;20707;-70
2022/05/24 08:43:28;;;;;;;0.00;0.00;;;19.20;1.00;226.50;231333.00;;;;5067059;28;20209;-70
2022/05/24 08:48:52;;;;;;;0.00;0.00;;;19.60;99.90;226.50;231333.00;;;;5051398;28;20727;-70
2022/05/24 08:51:28;;;;;;;0.00;0.00;;;19.80;99.90;226.50;231333.00;;;;5051499;28;20353;-70
2022/05/24 08:54:05;;;;;;;0.00;0.00;;;19.80;99.90;226.50;231333.00;;;;5051302;28;20221;-70
2022/05/24 08:56:38;;;;;;;0.00;0.00;;;19.90;99.90;226.50;231333.00;;;;5050927;28;20198;-69
2022/05/24 08:59:16;;;;;;;0.00;0.00;;;19.90;99.90;226.50;231333.00;;;;5052134;28;20187;-70
2022/05/24 09:01:47;;;;;;;0.00;0.00;;;19.80;99.90;226.50;231333.00;;;;5051710;28;20218;-70
2022/05/24 09:04:16;;;;;;;0.00;0.00;;;20.10;1.00;226.50;231333.00;;;;5052430;28;20226;-70
2022/05/24 09:06:59;;;;;;;0.00;0.00;;;20.40;1.00;226.50;231333.00;;;;5051587;28;20191;-70
2022/05/24 09:09:45;;;;;;;0.00;0.00;;;20.40;1.00;226.50;231333.00;;;;5051313;28;20213;-69
2022/05/24 09:12:38;;;;;;;0.00;0.00;;;20.40;99.90;226.50;231333.00;;;;5051306;28;20202;-70
2022/05/24 09:15:18;;;;;;;0.00;0.00;;;20.00;1.00;226.50;231333.00;;;;5053602;28;20226;-70
2022/05/24 09:18:12;;;;;;;0.00;0.00;;;19.90;99.90;226.50;231333.00;;;;5059529;28;20301;-69
2022/05/24 09:20:44;;;;;;;0.00;0.00;;;19.90;1.00;226.50;231333.00;;;;5057252;28;20221;-69
2022/05/24 09:23:34;;;;;;;0.00;0.00;;;19.90;99.90;226.50;231333.00;;;;5053943;28;20225;-69
2022/05/24 09:26:07;;;;;;;0.00;0.00;;;19.90;99.90;226.50;231333.00;;;;5054508;28;20205;-68
2022/05/24 09:28:46;;;;;;;0.00;0.00;;;20.10;86.90;226.50;231333.00;;;;5054085;28;20195;-69
2022/05/24 09:31:30;;;;;;;0.00;0.00;;;20.00;6.60;226.50;231333.00;;;;5053681;28;20272;-69
2022/05/24 09:34:04;;;;;;;0.00;0.00;;;20.00;99.90;226.50;231333.00;;;;5051007;28;20273;-70
2022/05/24 09:36:39;;;;;;;0.00;0.00;;;20.00;99.90;226.50;231333.00;;;;5050409;28;20224;-69
2022/05/24 09:39:26;;;;;;;0.00;0.00;;;20.10;1.00;226.50;231333.00;;;;5053397;28;20186;-70
2022/05/24 09:41:58;;;;;;;0.00;0.00;;;20.10;1.00;226.50;231333.00;;;;5054928;28;20396;-70
2022/05/24 09:44:28;;;;;;;0.00;0.00;;;20.00;1.00;226.50;231333.00;;;;5054969;28;20214;-70
2022/05/24 09:46:57;;;;;;;0.00;0.00;;;20.00;1.00;226.50;231333.00;;;;5054699;28;20574;-69
2022/05/24 09:49:32;;;;;;;0.00;0.00;;;20.10;1.00;226.50;231333.00;;;;5054915;28;20721;-70
2022/05/24 09:52:13;;;;;;;0.00;0.00;;;20.00;1.00;226.50;231333.00;;;;5054987;28;20224;-69
2022/05/24 09:54:58;;;;;;;0.00;0.00;;;20.20;1.00;226.50;231333.00;;;;5054815;28;20224;-70
2022/05/24 09:57:32;;;;;;;0.00;0.00;;;20.10;1.00;226.50;231333.00;;;;5054286;28;20190;-70
2022/05/24 10:00:16;;;;;;;0.00;0.00;;;20.10;1.00;226.50;231333.00;;;;5056326;28;20221;-69
2022/05/24 10:02:45;;;;;;;0.00;0.00;;;20.00;1.00;226.50;231333.00;;;;5066477;28;20194;-69
2022/05/24 10:05:23;;;;;;;0.00;0.00;;;20.10;1.00;226.50;231333.00;;;;5074962;28;20226;-70
2022/05/24 10:07:58;;;;;;;0.00;0.00;;;20.20;1.00;226.50;231333.00;;;;5074221;28;20197;-69
2022/05/24 10:10:34;;;;;;;0.00;0.00;;;20.20;1.00;226.50;231333.00;;;;5075251;28;20209;-69
2022/05/24 10:13:16;;;;;;;0.00;0.00;;;20.20;1.00;226.50;231333.00;;;;5075086;28;20197;-70
2022/05/24 10:16:05;;;;;;;0.00;0.00;;;19.90;1.00;226.50;231333.00;;;;5073913;28;20677;-69
2022/05/24 10:18:51;;;;;;;0.00;0.00;;;19.90;1.00;226.50;231333.00;;;;5074835;28;20668;-70
2022/05/24 10:21:31;;;;;;;0.00;0.00;;;19.90;1.00;226.50;231333.00;;;;5075245;28;20190;-70
2022/05/24 10:24:24;;;;;;;0.00;0.00;;;19.90;1.00;226.50;231333.00;;;;5074791;28;20189;-70
2022/05/24 10:27:03;;;;;;;0.03;0.03;;;19.80;99.90;226.50;231333.00;;;;5074074;28;20193;-70
2022/05/24 10:29:50;;;;;;;0.00;0.00;;;19.80;99.90;226.50;231333.00;;;;5074736;28;20221;-70
2022/05/24 10:39:01;;;;;;;0.00;0.00;;;19.70;99.90;226.50;231333.00;;;;5076314;28;20205;-70
2022/05/24 10:41:49;;;;;;;0.00;0.00;;;19.60;99.90;226.50;231333.00;;;;5076569;28;20197;-70
2022/05/24 10:44:29;;;;;;;0.00;0.00;;;19.60;99.90;226.50;231333.00;;;;5076358;28;20209;-70
2022/05/24 10:47:06;;;;;;;0.00;0.00;;;19.50;99.90;226.50;231333.00;;;;5075687;28;20192;-70
2022/05/24 10:49:46;;;;;;;0.00;0.00;;;19.60;99.90;226.50;231333.00;;;;5076014;28;20228;-69
2022/05/24 10:52:34;;;;;;;0.00;0.00;;;19.40;99.90;226.50;231333.00;;;;5076931;28;20229;-70
2022/05/24 10:55:17;;;;;;;0.00;0.00;;;19.40;1.00;226.50;231333.00;;;;5076236;28;20201;-70
2022/05/24 10:57:57;;;;;;;0.00;0.00;;;19.50;1.00;226.50;231333.00;;;;5075550;28;20212;-70
2022/05/24 11:00:35;;;;;;;0.00;0.00;;;19.50;99.90;226.50;231333.00;;;;5076033;28;20232;-70
2022/05/24 11:03:12;;;;;;;0.00;0.00;;;19.40;1.00;226.50;231333.00;;;;5076551;28;20189;-70
2022/05/24 11:05:47;;;;;;;0.00;0.00;;;19.40;1.00;226.50;231333.00;;;;5075707;28;20256;-69
2022/05/24 11:08:34;;;;;;;0.00;0.00;;;19.30;1.00;226.50;231333.00;;;;5075130;28;20535;-69
2022/05/24 11:11:14;;;;;;;0.00;0.00;;;19.20;7.80;226.50;231333.00;;;;5075694;28;20224;-70
2022/05/24 11:13:52;;;;;;;0.00;0.00;;;19.00;1.00;226.50;231333.00;;;;5075068;28;20185;-70
2022/05/24 11:16:34;;;;;;;0.00;0.00;;;18.70;1.00;226.50;231333.00;;;;5075914;28;20206;-69
2022/05/24 11:19:03;;;;;;;0.00;0.00;;;18.50;23.30;226.50;231333.00;;;;5074731;28;20620;-69
2022/05/24 11:21:38;;;;;;;0.00;0.00;;;18.30;1.00;226.50;231333.00;;;;5075543;28;20185;-69
2022/05/24 11:24:15;;;;;;;0.00;0.00;;;18.20;1.00;226.50;231333.00;;;;5073512;28;20205;-69
2022/05/24 11:26:52;;;;;;;0.00;0.00;;;18.10;99.90;226.50;231333.00;;;;5073445;28;20282;-69
2022/05/24 11:29:29;;;;;;;0.00;0.00;;;17.90;1.00;226.50;231333.00;;;;5075317;28;20585;-69
2022/05/24 11:32:06;;;;;;;0.00;0.00;;;17.50;1.00;226.50;231333.00;;;;5075772;28;20188;-69
2022/05/24 11:34:41;;;;;;;0.00;0.00;;;17.30;99.90;226.50;231333.00;;;;5076004;28;20209;-70
2022/05/24 11:37:24;;;;;;;0.00;0.00;;;17.20;1.00;226.50;231333.00;;;;5075556;28;20239;-69
2022/05/24 11:39:54;;;;;;;0.05;0.05;;;17.10;99.90;226.50;231333.00;;;;5077447;28;20222;-69
2022/05/24 11:42:43;;;;;;;0.03;0.03;;;17.10;64.00;226.50;231333.00;;;;5077781;28;20671;-69
2022/05/24 11:46:02;;;;;;;0.00;0.00;;;17.30;54.10;226.50;231333.00;;;;5078139;28;20240;-69
2022/05/24 11:48:59;;;;;;;0.00;0.00;;;17.40;1.00;226.50;231333.00;;;;5074784;28;20201;-69